Hlavní strana
METAR-TAF:

METAR-TAF

Letiště :

Centralia Municipal Airport

Centralia, Illinois, Spojené státy americké

zeměpisná šířka: 38-30-53N, zeměpisná délka: 089-05-32W, výška: 163 m

Aktuální stav počasí

Zpráva byla vytvořena před 7 minutami, v 19:35 UTC
Severoseverozápadní vítr 9 kt
Teplota 3°C
Vlhkost vzduchu 81%
Tlak 1023 hPa
Viditelnost: 16.1 km
Oblačno až skoro zataženo ve výšce 1900 ft
Oblačno až skoro zataženo ve výšce 10000 ft
Zataženo ve výšce 11000 ft

METAR: KENL 181935Z AUTO 33009KT 10SM BKN019 BKN100 OVC110 03/00 A3022 RMK AO2 T00320001

Čas: 13:42 (19:42 UTC)


TAF: chybějící

Stav a předpovědi počasí z více než 4 000 letišť (zprávy METAR a TAF).

Červené a žluté tečky na mapě představují dostupné meteorologické stanice.

Když kurzor umístíte na tečku, zobrazí se název stanice.

Pak kliknutím zobrazíte stav a předpověď počasí.

Chcete-li změnit mapu, kliknutím na zelené tlačítko se znaménkem +mapu přiblížíte, kliknutím na zelené tlačítko se znaménkem – mapu oddálíte a kliknutím na zelené šipky přejdete na sousední mapy.


METAR-TAF: